createdAt,value
2023-11-08T00:00:33.753Z,1.17
2023-11-08T00:03:02.159Z,1.30
2023-11-08T00:05:30.219Z,1.17
2023-11-08T00:07:57.633Z,1.20
2023-11-08T00:10:25.023Z,0.87
2023-11-08T00:12:52.534Z,1.10
2023-11-08T00:15:19.974Z,1.10
2023-11-08T00:17:47.636Z,1.00
2023-11-08T00:20:14.958Z,1.20
2023-11-08T00:22:45.863Z,1.30
2023-11-08T00:25:13.717Z,1.10
2023-11-08T00:27:41.253Z,0.80
2023-11-08T00:30:09.542Z,0.90
2023-11-08T00:32:37.055Z,0.90
2023-11-08T00:35:04.757Z,1.07
2023-11-08T00:37:32.404Z,1.00
2023-11-08T00:39:59.787Z,1.10
2023-11-08T00:42:27.277Z,1.10
2023-11-08T00:44:54.629Z,1.03
2023-11-08T00:47:21.991Z,1.10
2023-11-08T00:49:49.932Z,1.20
2023-11-08T00:52:17.549Z,1.50
2023-11-08T00:54:45.647Z,1.40
2023-11-08T00:57:14.144Z,1.30
2023-11-08T00:59:43.029Z,1.40
2023-11-08T01:02:10.396Z,1.60
2023-11-08T01:04:38.005Z,1.90
2023-11-08T01:07:06.226Z,1.73
2023-11-08T01:09:33.571Z,2.03
2023-11-08T01:12:00.921Z,2.10
2023-11-08T01:14:28.567Z,2.10
2023-11-08T01:16:56.087Z,2.00
2023-11-08T01:19:26.260Z,2.00
2023-11-08T01:21:54.232Z,2.20
2023-11-08T01:24:23.807Z,2.50
2023-11-08T01:26:51.150Z,2.33
2023-11-08T01:29:18.480Z,2.37
2023-11-08T01:31:47.103Z,2.47
2023-11-08T01:34:15.320Z,2.40
2023-11-08T01:36:44.236Z,2.77
2023-11-08T01:39:12.180Z,2.13
2023-11-08T01:41:39.498Z,2.10
2023-11-08T01:44:07.320Z,1.90
2023-11-08T01:46:35.006Z,2.33
2023-11-08T01:49:02.632Z,2.67
2023-11-08T01:51:30.761Z,3.07
2023-11-08T01:53:58.579Z,2.80
2023-11-08T01:56:26.304Z,3.40
2023-11-08T01:58:57.828Z,3.03
2023-11-08T02:01:26.658Z,3.40
2023-11-08T02:03:55.971Z,3.40
2023-11-08T02:06:23.454Z,3.20
2023-11-08T02:08:52.361Z,3.67
2023-11-08T02:11:19.646Z,3.63
2023-11-08T02:13:46.947Z,3.50
2023-11-08T02:16:14.353Z,3.57
2023-11-08T02:18:42.682Z,3.50
2023-11-08T02:21:14.536Z,3.70
2023-11-08T02:23:42.184Z,3.80
2023-11-08T02:26:09.511Z,3.63
2023-11-08T02:28:39.103Z,3.40
2023-11-08T02:31:06.536Z,3.80
2023-11-08T02:33:33.944Z,3.87
2023-11-08T02:36:02.349Z,3.63
2023-11-08T02:38:29.877Z,3.47
2023-11-08T02:40:57.644Z,3.10
2023-11-08T02:43:27.066Z,2.80
2023-11-08T02:45:54.930Z,2.77
2023-11-08T02:48:22.546Z,2.70
2023-11-08T02:50:51.513Z,2.40
2023-11-08T02:53:21.293Z,2.50
2023-11-08T02:55:48.790Z,2.30
2023-11-08T02:58:16.118Z,2.47
2023-11-08T03:00:43.835Z,2.20
2023-11-08T03:03:14.650Z,2.20
2023-11-08T03:05:42.453Z,2.00
2023-11-08T03:08:09.955Z,2.20
2023-11-08T03:10:37.446Z,2.40
2023-11-08T03:13:06.050Z,2.50
2023-11-08T03:15:33.886Z,2.40
2023-11-08T03:18:01.461Z,2.50
2023-11-08T03:20:28.842Z,2.00
2023-11-08T03:22:57.309Z,2.53
2023-11-08T03:25:24.682Z,2.10
2023-11-08T03:27:52.031Z,2.30
2023-11-08T03:30:19.464Z,2.40
2023-11-08T03:32:47.551Z,1.80
2023-11-08T03:35:16.541Z,2.30
2023-11-08T03:37:44.772Z,2.00
2023-11-08T03:40:13.928Z,2.03
2023-11-08T03:42:42.788Z,2.50
2023-11-08T03:45:11.181Z,1.80
2023-11-08T03:47:42.880Z,2.00
2023-11-08T03:50:10.807Z,2.07
2023-11-08T03:52:38.347Z,1.97
2023-11-08T03:55:06.766Z,2.03
2023-11-08T03:57:34.166Z,2.00
2023-11-08T04:00:01.861Z,2.20
2023-11-08T04:02:29.443Z,1.50
2023-11-08T04:04:58.277Z,1.90
2023-11-08T04:07:25.760Z,2.17
2023-11-08T04:09:53.182Z,1.93
2023-11-08T04:12:21.135Z,1.90
2023-11-08T04:14:48.889Z,1.90
2023-11-08T04:17:19.019Z,1.70
2023-11-08T04:19:47.156Z,1.90
2023-11-08T04:22:17.346Z,1.77
2023-11-08T04:24:44.901Z,1.70
2023-11-08T04:27:12.554Z,1.80
2023-11-08T04:29:40.025Z,1.43
2023-11-08T04:32:07.602Z,1.80
2023-11-08T04:34:35.375Z,1.60
2023-11-08T04:37:07.723Z,1.37
2023-11-08T04:39:36.772Z,1.40
2023-11-08T04:42:04.919Z,1.37
2023-11-08T04:44:32.843Z,1.40
2023-11-08T04:47:00.174Z,1.50
2023-11-08T04:49:29.181Z,1.30
2023-11-08T04:51:56.641Z,1.50
2023-11-08T04:54:24.089Z,1.30
2023-11-08T04:56:51.501Z,1.20
2023-11-08T04:59:18.964Z,1.40
2023-11-08T05:01:46.686Z,1.23
2023-11-08T05:04:14.601Z,1.40
2023-11-08T05:06:41.922Z,1.17
2023-11-08T05:09:09.274Z,1.17
2023-11-08T05:11:36.907Z,0.90
2023-11-08T05:14:04.634Z,1.10
2023-11-08T05:16:35.205Z,1.20
2023-11-08T05:19:06.736Z,2.30
2023-11-08T05:21:34.644Z,4.37
2023-11-08T05:24:02.016Z,2.03
2023-11-08T05:26:29.353Z,2.40
2023-11-08T05:28:56.647Z,1.00
2023-11-08T05:31:24.670Z,0.90
2023-11-08T05:33:52.128Z,1.67
2023-11-08T05:36:19.557Z,1.03
2023-11-08T05:38:48.734Z,1.40
2023-11-08T05:41:20.434Z,1.27
2023-11-08T05:43:47.817Z,1.13
2023-11-08T05:46:15.141Z,1.43
2023-11-08T05:48:42.608Z,1.07
2023-11-08T05:51:10.218Z,1.40
2023-11-08T05:53:38.735Z,1.27
2023-11-08T05:56:07.654Z,1.40
2023-11-08T05:58:36.858Z,1.10
2023-11-08T06:01:05.994Z,3.10
2023-11-08T06:03:33.931Z,2.10
2023-11-08T06:06:01.442Z,1.20
2023-11-08T06:08:28.745Z,1.20
2023-11-08T06:10:56.085Z,1.10
2023-11-08T06:13:23.768Z,1.17
2023-11-08T06:15:51.301Z,1.07
2023-11-08T06:18:21.900Z,0.90
2023-11-08T06:20:49.478Z,1.07
2023-11-08T06:23:16.754Z,0.90
2023-11-08T06:25:45.127Z,0.90
2023-11-08T06:28:12.984Z,1.40
2023-11-08T06:30:40.526Z,1.30
2023-11-08T06:33:08.966Z,1.00
2023-11-08T06:35:38.427Z,1.30
2023-11-08T06:38:05.960Z,1.27
2023-11-08T06:40:33.262Z,0.93
2023-11-08T06:43:00.607Z,1.33
2023-11-08T06:45:27.901Z,1.20
2023-11-08T06:47:55.601Z,1.40
2023-11-08T06:50:23.012Z,1.07
2023-11-08T06:52:50.304Z,1.30
2023-11-08T06:55:23.236Z,0.90
2023-11-08T06:58:02.772Z,1.10
2023-11-08T07:00:30.602Z,1.50
2023-11-08T07:02:58.073Z,1.00
2023-11-08T07:05:30.395Z,1.13
2023-11-08T07:08:04.376Z,1.00
2023-11-08T07:10:31.809Z,1.07
2023-11-08T07:12:59.979Z,1.23
2023-11-08T07:15:28.801Z,0.87
2023-11-08T07:17:56.389Z,1.00
2023-11-08T07:20:24.318Z,1.07
2023-11-08T07:22:51.662Z,0.90
2023-11-08T07:25:19.213Z,1.03
2023-11-08T07:27:46.774Z,1.07
2023-11-08T07:30:16.089Z,0.90
2023-11-08T07:32:47.383Z,1.37
2023-11-08T07:35:15.230Z,1.20
2023-11-08T07:37:42.512Z,1.20
2023-11-08T07:40:13.673Z,1.23
2023-11-08T07:42:42.274Z,1.00
2023-11-08T07:45:10.476Z,1.20
2023-11-08T07:47:37.957Z,1.23
2023-11-08T07:50:07.719Z,0.90
2023-11-08T07:52:35.255Z,1.10
2023-11-08T07:55:02.745Z,1.00
2023-11-08T07:57:30.196Z,1.00
2023-11-08T07:59:57.545Z,0.93
2023-11-08T08:02:25.018Z,1.00
2023-11-08T08:04:53.236Z,0.83
2023-11-08T08:07:20.612Z,1.27
2023-11-08T08:09:47.903Z,1.10
2023-11-08T08:12:15.213Z,0.80
2023-11-08T08:14:42.527Z,0.80
2023-11-08T08:17:09.861Z,0.90
2023-11-08T08:19:37.385Z,1.23
2023-11-08T08:22:05.729Z,1.00
2023-11-08T08:24:33.530Z,1.00
2023-11-08T08:27:00.929Z,0.90
2023-11-08T08:29:29.427Z,1.00
2023-11-08T08:31:56.800Z,0.90
2023-11-08T08:34:28.995Z,1.10
2023-11-08T08:36:59.225Z,1.20
2023-11-08T08:39:29.296Z,1.00
2023-11-08T08:41:57.901Z,1.00
2023-11-08T08:44:25.922Z,1.60
2023-11-08T08:46:53.433Z,1.20
2023-11-08T08:49:22.863Z,1.20
2023-11-08T08:51:51.039Z,1.50
2023-11-08T08:54:22.251Z,1.30
2023-11-08T08:56:50.209Z,1.10
2023-11-08T08:59:17.923Z,0.80
2023-11-08T09:01:45.921Z,1.00
2023-11-08T09:04:13.763Z,0.60
2023-11-08T09:06:41.224Z,0.97
2023-11-08T09:09:14.441Z,1.07
2023-11-08T09:11:42.001Z,1.20
2023-11-08T09:14:10.069Z,1.27
2023-11-08T09:16:39.987Z,1.00
2023-11-08T09:19:11.666Z,1.27
2023-11-08T09:21:39.451Z,1.23
2023-11-08T09:24:08.209Z,0.80
2023-11-08T09:26:36.842Z,0.90
2023-11-08T09:29:04.422Z,0.70
2023-11-08T09:31:31.932Z,0.77
2023-11-08T09:34:01.359Z,0.80
2023-11-08T09:36:29.932Z,0.87
2023-11-08T09:39:00.058Z,0.60
2023-11-08T09:41:28.905Z,0.73
2023-11-08T09:43:57.089Z,1.03
2023-11-08T09:46:27.574Z,1.80
2023-11-08T09:48:57.509Z,2.20
2023-11-08T09:51:25.342Z,1.57
2023-11-08T09:53:53.726Z,1.83
2023-11-08T09:56:23.078Z,1.80
2023-11-08T09:58:51.730Z,1.10
2023-11-08T10:01:19.484Z,2.37
2023-11-08T10:03:47.822Z,1.20
2023-11-08T10:06:18.532Z,2.17
2023-11-08T10:08:48.071Z,2.70
2023-11-08T10:11:18.391Z,4.60
2023-11-08T10:13:54.291Z,0.93
2023-11-08T10:16:24.800Z,1.80
2023-11-08T10:19:36.141Z,3.10
2023-11-08T10:21:52.373Z,1.10
2023-11-08T10:24:19.876Z,1.10
2023-11-08T10:26:47.932Z,0.97
2023-11-08T10:29:15.478Z,0.90
2023-11-08T10:31:43.951Z,0.80
2023-11-08T10:34:13.784Z,0.77
2023-11-08T10:36:43.889Z,0.97
2023-11-08T10:39:31.517Z,1.40
2023-11-08T10:41:58.910Z,0.90
2023-11-08T10:44:31.094Z,1.07
2023-11-08T10:46:59.479Z,1.07
2023-11-08T10:49:27.563Z,0.80
2023-11-08T10:51:55.261Z,1.10
2023-11-08T10:54:22.858Z,1.20
2023-11-08T10:56:53.843Z,0.80
2023-11-08T10:59:22.674Z,0.90
2023-11-08T11:01:50.359Z,1.10
2023-11-08T11:04:21.141Z,1.00
2023-11-08T11:06:49.815Z,0.90
2023-11-08T11:09:18.297Z,0.80
2023-11-08T11:11:54.470Z,0.90
2023-11-08T11:14:48.751Z,0.90
2023-11-08T11:17:24.067Z,0.77
2023-11-08T11:19:54.538Z,0.80
2023-11-08T11:22:23.268Z,0.77
2023-11-08T11:24:50.625Z,0.90
2023-11-08T11:27:40.232Z,1.13
2023-11-08T11:30:22.675Z,0.80
2023-11-08T11:32:54.865Z,0.80
2023-11-08T11:35:31.054Z,0.90
2023-11-08T11:38:07.585Z,0.80
2023-11-08T11:40:39.389Z,1.10
2023-11-08T11:43:45.918Z,0.83
2023-11-08T11:46:20.895Z,0.70
2023-11-08T11:49:02.633Z,0.63
2023-11-08T11:51:30.287Z,0.70
2023-11-08T11:53:57.859Z,0.70
2023-11-08T11:56:25.347Z,0.90
2023-11-08T11:58:52.681Z,1.20
2023-11-08T12:01:23.068Z,0.80
2023-11-08T12:03:52.447Z,0.80
2023-11-08T12:06:20.668Z,0.90
2023-11-08T12:08:48.007Z,1.00
2023-11-08T12:11:16.984Z,1.37
2023-11-08T12:13:52.280Z,0.90
2023-11-08T12:16:20.866Z,1.20
2023-11-08T12:18:50.673Z,1.00
2023-11-08T12:21:19.679Z,0.93
2023-11-08T12:23:50.802Z,0.90
2023-11-08T12:26:21.127Z,0.90
2023-11-08T12:28:50.265Z,1.10
2023-11-08T12:31:29.143Z,0.80
2023-11-08T12:33:59.554Z,0.90
2023-11-08T12:36:27.119Z,1.07
2023-11-08T12:38:54.613Z,0.83
2023-11-08T12:41:22.026Z,1.00
2023-11-08T12:44:05.155Z,0.90
2023-11-08T12:46:41.098Z,0.70
2023-11-08T12:49:16.370Z,1.50
2023-11-08T12:51:44.965Z,0.90
2023-11-08T12:54:16.379Z,0.90
2023-11-08T12:56:44.722Z,0.83
2023-11-08T12:59:13.011Z,0.70
2023-11-08T13:01:40.406Z,0.90
2023-11-08T13:04:08.647Z,0.97
2023-11-08T13:06:36.192Z,0.70
2023-11-08T13:09:04.434Z,1.17
2023-11-08T13:11:35.175Z,0.80
2023-11-08T13:14:06.369Z,0.77
2023-11-08T13:16:34.462Z,0.63
2023-11-08T13:19:02.717Z,1.17
2023-11-08T13:21:30.311Z,1.03
2023-11-08T13:24:03.281Z,0.80
2023-11-08T13:26:35.420Z,1.07
2023-11-08T13:29:04.036Z,1.10
2023-11-08T13:31:31.540Z,0.90
2023-11-08T13:33:59.332Z,1.00
2023-11-08T13:36:28.728Z,0.97
2023-11-08T13:38:57.697Z,0.90
2023-11-08T13:41:26.259Z,1.50
2023-11-08T13:43:53.668Z,0.87
2023-11-08T13:46:22.804Z,0.80
2023-11-08T13:48:50.458Z,0.80
2023-11-08T13:51:18.052Z,0.90
2023-11-08T13:53:45.642Z,0.63
2023-11-08T13:56:13.368Z,0.90
2023-11-08T13:58:40.824Z,0.90
2023-11-08T14:01:11.798Z,1.07
2023-11-08T14:03:40.415Z,1.17
2023-11-08T14:06:09.509Z,1.07
2023-11-08T14:08:38.494Z,1.03
2023-11-08T14:11:06.318Z,1.30
2023-11-08T14:13:33.808Z,0.80
2023-11-08T14:16:01.321Z,1.40
2023-11-08T14:18:28.753Z,2.40
2023-11-08T14:20:57.793Z,0.90
2023-11-08T14:23:25.456Z,0.90
2023-11-08T14:25:52.783Z,0.60
2023-11-08T14:28:20.628Z,0.63
2023-11-08T14:30:48.473Z,0.87
2023-11-08T14:33:17.759Z,0.80
2023-11-08T14:35:45.437Z,0.83
2023-11-08T14:38:13.221Z,0.93
2023-11-08T14:40:41.377Z,0.80
2023-11-08T14:43:08.997Z,1.00
2023-11-08T14:45:36.735Z,0.80
2023-11-08T14:48:05.169Z,1.60
2023-11-08T14:50:32.546Z,0.77
2023-11-08T14:53:00.099Z,1.07
2023-11-08T14:55:27.393Z,0.87
2023-11-08T14:57:54.804Z,1.20
2023-11-08T15:00:24.573Z,1.50
2023-11-08T15:02:53.604Z,1.60
2023-11-08T15:05:21.391Z,1.40
2023-11-08T15:09:47.278Z,1.33
2023-11-08T15:10:38.559Z,1.50
2023-11-08T15:13:06.229Z,2.67
2023-11-08T15:15:34.392Z,1.60
2023-11-08T15:18:01.813Z,1.20
2023-11-08T15:20:29.177Z,1.23
2023-11-08T15:22:58.157Z,1.33
2023-11-08T15:25:25.694Z,0.80
2023-11-08T15:27:54.314Z,1.10
2023-11-08T15:30:22.911Z,0.80
2023-11-08T15:32:50.607Z,1.13
2023-11-08T15:35:18.118Z,0.90
2023-11-08T15:37:45.486Z,1.10
2023-11-08T15:40:14.471Z,0.93
2023-11-08T15:42:42.229Z,1.07
2023-11-08T15:45:10.673Z,1.10
2023-11-08T15:47:38.468Z,0.80
2023-11-08T15:50:06.497Z,0.83
2023-11-08T15:52:33.981Z,0.80
2023-11-08T15:55:01.563Z,1.03
2023-11-08T15:57:29.309Z,1.83
2023-11-08T15:59:57.563Z,1.30
2023-11-08T16:02:24.892Z,1.17
2023-11-08T16:04:52.536Z,1.13
2023-11-08T16:07:20.165Z,1.20
2023-11-08T16:09:47.525Z,1.20
2023-11-08T16:12:14.966Z,1.10
2023-11-08T16:14:42.664Z,1.70
2023-11-08T16:17:10.054Z,1.27
2023-11-08T16:19:37.737Z,1.60
2023-11-08T16:22:05.254Z,1.30
2023-11-08T16:24:32.603Z,1.80
2023-11-08T16:27:00.069Z,1.40
2023-11-08T16:29:50.816Z,1.20
2023-11-08T16:32:35.045Z,2.27
2023-11-08T16:35:02.773Z,1.60
2023-11-08T16:37:30.523Z,2.17
2023-11-08T16:39:58.289Z,1.63
2023-11-08T16:42:25.825Z,1.20
2023-11-08T16:44:53.205Z,1.10
2023-11-08T16:47:20.689Z,1.00
2023-11-08T16:49:51.938Z,1.10
2023-11-08T16:52:20.346Z,1.10
2023-11-08T16:54:47.612Z,3.17
2023-11-08T16:57:15.238Z,2.20
2023-11-08T16:59:42.911Z,2.30
2023-11-08T17:02:10.383Z,3.80
2023-11-08T17:04:47.178Z,18.70
2023-11-08T17:07:14.814Z,4.00
2023-11-08T17:09:42.691Z,2.53
2023-11-08T17:12:10.202Z,2.50
2023-11-08T17:14:37.725Z,4.00
2023-11-08T17:17:05.312Z,4.00
2023-11-08T17:19:33.059Z,2.83
2023-11-08T17:22:01.126Z,2.77
2023-11-08T17:24:28.598Z,2.60
2023-11-08T17:26:56.026Z,3.87
2023-11-08T17:29:23.465Z,3.97
2023-11-08T17:31:52.131Z,3.20
2023-11-08T17:34:20.402Z,3.10
2023-11-08T17:36:48.746Z,3.67
2023-11-08T17:39:16.262Z,3.73
2023-11-08T17:41:43.522Z,4.43
2023-11-08T17:44:11.717Z,4.23
2023-11-08T17:46:39.010Z,4.70
2023-11-08T17:49:06.404Z,3.40
2023-11-08T17:51:33.824Z,2.77
2023-11-08T17:54:02.238Z,2.60
2023-11-08T17:56:29.719Z,2.47
2023-11-08T17:58:57.052Z,2.90
2023-11-08T18:01:24.493Z,2.83
2023-11-08T18:03:51.884Z,2.90
2023-11-08T18:06:19.846Z,4.00
2023-11-08T18:08:47.134Z,3.37
2023-11-08T18:11:15.305Z,3.67
2023-11-08T18:13:47.913Z,3.83
2023-11-08T18:16:15.743Z,3.40
2023-11-08T18:18:45.250Z,3.53
2023-11-08T18:21:13.930Z,3.70
2023-11-08T18:23:42.840Z,2.93
2023-11-08T18:26:10.320Z,3.17
2023-11-08T18:28:37.604Z,3.10
2023-11-08T18:31:05.053Z,2.60
2023-11-08T18:33:32.482Z,2.90
2023-11-08T18:35:59.956Z,2.80
2023-11-08T18:38:30.092Z,3.20
2023-11-08T18:40:58.957Z,3.30
2023-11-08T18:43:27.383Z,4.30
2023-11-08T18:45:56.077Z,3.60
2023-11-08T18:48:27.516Z,4.03
2023-11-08T18:50:56.269Z,4.20
2023-11-08T18:53:25.159Z,4.87
2023-11-08T18:55:52.780Z,4.40
2023-11-08T18:58:24.374Z,4.33
2023-11-08T19:00:54.090Z,4.30
2023-11-08T19:03:21.770Z,4.23
2023-11-08T19:05:50.223Z,4.33
2023-11-08T19:08:17.984Z,4.43
2023-11-08T19:10:45.742Z,4.17
2023-11-08T19:13:13.978Z,4.60
2023-11-08T19:15:42.001Z,4.50
2023-11-08T19:18:09.746Z,4.63
2023-11-08T19:20:37.457Z,4.70
2023-11-08T19:23:12.450Z,5.30
2023-11-08T19:25:47.977Z,5.60
2023-11-08T19:28:15.274Z,5.47
2023-11-08T19:30:43.576Z,5.37
2023-11-08T19:33:10.941Z,4.77
2023-11-08T19:35:43.009Z,4.50
2023-11-08T19:38:10.529Z,4.77
2023-11-08T19:40:38.347Z,3.83
2023-11-08T19:43:08.800Z,4.23
2023-11-08T19:45:36.125Z,5.00
2023-11-08T19:48:03.798Z,4.23
2023-11-08T19:50:32.463Z,4.10
2023-11-08T19:52:59.993Z,3.20
2023-11-08T19:55:27.707Z,3.03
2023-11-08T19:57:55.707Z,4.03
2023-11-08T20:00:23.210Z,3.97
2023-11-08T20:02:52.799Z,4.47
2023-11-08T20:05:20.575Z,4.10
2023-11-08T20:07:50.173Z,19.60
2023-11-08T20:10:18.746Z,14.73
2023-11-08T20:12:49.119Z,9.60
2023-11-08T20:15:16.952Z,7.67
2023-11-08T20:17:44.894Z,6.80
2023-11-08T20:20:13.095Z,7.10
2023-11-08T20:22:41.317Z,6.17
2023-11-08T20:25:10.460Z,5.40
2023-11-08T20:27:38.679Z,5.50
2023-11-08T20:30:08.376Z,6.03
2023-11-08T20:32:38.760Z,5.70
2023-11-08T20:35:06.802Z,5.20
2023-11-08T20:37:35.246Z,5.80
2023-11-08T20:40:03.198Z,7.23
2023-11-08T20:42:31.154Z,5.70
2023-11-08T20:44:58.449Z,5.50
2023-11-08T20:47:25.893Z,4.97
2023-11-08T20:49:55.241Z,4.63
2023-11-08T20:52:28.146Z,4.90
2023-11-08T20:54:55.908Z,4.20
2023-11-08T20:57:23.655Z,4.07
2023-11-08T20:59:51.826Z,4.33
2023-11-08T21:02:19.661Z,3.77
2023-11-08T21:04:47.013Z,4.00
2023-11-08T21:07:14.661Z,4.67
2023-11-08T21:09:42.419Z,4.60
2023-11-08T21:12:11.257Z,4.90
2023-11-08T21:14:38.802Z,4.60
2023-11-08T21:17:07.125Z,4.80
2023-11-08T21:19:34.843Z,5.60
2023-11-08T21:22:02.586Z,5.20
2023-11-08T21:24:29.925Z,5.10
2023-11-08T21:26:57.403Z,5.27
2023-11-08T21:29:24.684Z,5.47
2023-11-08T21:31:52.272Z,5.40
2023-11-08T21:34:20.232Z,5.10
2023-11-08T21:36:47.734Z,5.60
2023-11-08T21:39:15.518Z,6.07
2023-11-08T21:41:46.781Z,5.33
2023-11-08T21:44:14.532Z,5.17
2023-11-08T21:46:44.997Z,5.07
2023-11-08T21:49:13.280Z,5.23
2023-11-08T21:51:40.698Z,5.70
2023-11-08T21:54:09.728Z,5.80
2023-11-08T21:56:37.058Z,5.00
2023-11-08T21:59:04.510Z,5.23
2023-11-08T22:01:32.126Z,4.83
2023-11-08T22:03:59.527Z,4.93
2023-11-08T22:06:26.902Z,5.43
2023-11-08T22:08:56.328Z,5.00
2023-11-08T22:11:26.369Z,4.67
2023-11-08T22:13:53.764Z,5.23
2023-11-08T22:16:21.126Z,5.00
2023-11-08T22:18:48.609Z,4.80
2023-11-08T22:21:16.418Z,4.70
2023-11-08T22:23:43.782Z,4.90
2023-11-08T22:26:23.155Z,4.50
2023-11-08T22:28:52.513Z,4.40
2023-11-08T22:31:22.490Z,5.13
2023-11-08T22:33:49.853Z,4.90
2023-11-08T22:36:17.725Z,5.00
2023-11-08T22:38:45.152Z,5.10
2023-11-08T22:41:13.033Z,5.33
2023-11-08T22:43:40.803Z,5.23
2023-11-08T22:46:08.640Z,4.87
2023-11-08T22:48:37.240Z,4.60
2023-11-08T22:51:04.931Z,5.37
2023-11-08T22:53:33.090Z,4.67
2023-11-08T22:56:00.422Z,4.63
2023-11-08T22:58:28.147Z,4.30
2023-11-08T23:00:56.390Z,4.80
2023-11-08T23:03:24.254Z,4.73
2023-11-08T23:05:54.606Z,5.00
2023-11-08T23:08:22.545Z,5.30
2023-11-08T23:10:50.061Z,5.67
2023-11-08T23:13:18.132Z,6.33
2023-11-08T23:15:46.129Z,5.93
2023-11-08T23:18:16.197Z,5.87
2023-11-08T23:20:43.606Z,5.40
2023-11-08T23:23:12.987Z,5.80
2023-11-08T23:25:42.362Z,4.93
2023-11-08T23:28:09.873Z,4.70
2023-11-08T23:30:37.354Z,4.77
2023-11-08T23:33:05.197Z,4.77
2023-11-08T23:35:32.644Z,4.57
2023-11-08T23:38:01.813Z,4.73
2023-11-08T23:40:29.107Z,4.53
2023-11-08T23:42:56.599Z,4.40
2023-11-08T23:45:23.945Z,4.23
2023-11-08T23:47:51.630Z,4.30
2023-11-08T23:50:19.097Z,4.43
2023-11-08T23:52:47.031Z,4.73
2023-11-08T23:55:14.908Z,4.83
2023-11-08T23:57:42.488Z,4.83
